Antiville, Indiana
Current Conditions -  °F | °C
As of 4:22 AM on Thursday 23 Oct 2014 (Local Time) from KMIE Reporting Station
Haze Haze  
Wind Chill:   Ceiling: Unl
Heat Index:   Visibility: 1.7mi
Dew Point:   Wind: 0mph
Humidity: 96%   Direction: NA
Pressure: 30.26"   Gusts: NA
Location:  40.4312°N, 85.0058°W
Report Text: KMIE 230822Z AUTO 00000KT 1 3/4SM BR SCT002 01/00 A3026 RMK AO2 I1000 T00060000
Loading
Personal Weather Stations






























Interactive Weather Map
Tropical Storm Tracking
New forecast layout! Learn more

10-Day Weather Forecast

Advertisements
Track Severe Weather on mobile